createdAt,value
2019-03-09T00:04:17.738Z,86.06
2019-03-09T00:14:22.651Z,86.74
2019-03-09T00:24:29.194Z,87.09
2019-03-09T00:34:34.126Z,87.70
2019-03-09T00:44:38.995Z,87.82
2019-03-09T00:54:44.220Z,87.85
2019-03-09T01:04:49.128Z,87.58
2019-03-09T01:14:54.017Z,86.87
2019-03-09T01:24:58.884Z,86.11
2019-03-09T01:35:05.594Z,86.11
2019-03-09T01:45:13.094Z,86.04
2019-03-09T01:55:18.029Z,85.91
2019-03-09T02:05:22.923Z,85.72
2019-03-09T02:15:27.811Z,85.50
2019-03-09T02:25:32.697Z,84.74
2019-03-09T02:35:37.563Z,84.61
2019-03-09T02:45:42.459Z,83.72
2019-03-09T02:55:47.423Z,83.75
2019-03-09T03:05:52.344Z,83.55
2019-03-09T03:15:57.214Z,83.72
2019-03-09T03:26:02.084Z,83.66
2019-03-09T03:36:06.976Z,83.24
2019-03-09T03:46:11.922Z,82.88
2019-03-09T03:56:16.882Z,83.30
2019-03-09T04:06:22.120Z,83.43
2019-03-09T04:16:27.043Z,83.64
2019-03-09T04:26:32.019Z,83.18
2019-03-09T04:36:36.891Z,82.70
2019-03-09T04:46:41.781Z,82.20
2019-03-09T04:56:46.729Z,82.57
2019-03-09T05:06:51.598Z,82.25
2019-03-09T05:16:56.473Z,81.28
2019-03-09T05:27:01.345Z,81.29
2019-03-09T05:37:06.237Z,80.62
2019-03-09T05:47:11.105Z,79.97
2019-03-09T05:57:16.030Z,80.86
2019-03-09T06:07:20.876Z,78.26
2019-03-09T06:17:26.902Z,76.35
2019-03-09T06:27:32.510Z,75.84
2019-03-09T06:37:37.372Z,76.17
2019-03-09T06:47:42.279Z,75.51
2019-03-09T06:57:47.142Z,74.70
2019-03-09T07:07:52.129Z,74.95
2019-03-09T07:17:59.107Z,72.70
2019-03-09T07:28:09.339Z,72.70
2019-03-09T07:38:15.348Z,71.85
2019-03-09T07:48:20.216Z,67.15
2019-03-09T07:58:25.132Z,63.81
2019-03-09T08:08:30.000Z,58.49
2019-03-09T08:18:34.916Z,56.40
2019-03-09T08:28:39.791Z,52.94
2019-03-09T08:38:44.681Z,53.93
2019-03-09T08:48:49.560Z,51.27
2019-03-09T08:58:54.535Z,56.36
2019-03-09T09:08:59.450Z,55.30
2019-03-09T09:19:05.884Z,50.30
2019-03-09T09:29:10.774Z,47.22
2019-03-09T09:39:15.653Z,48.69
2019-03-09T09:49:20.526Z,50.10
2019-03-09T09:59:25.429Z,49.65
2019-03-09T10:09:30.331Z,47.66
2019-03-09T10:19:35.209Z,50.53
2019-03-09T10:29:40.083Z,50.81
2019-03-09T10:39:44.968Z,51.22
2019-03-09T10:49:49.866Z,49.86
2019-03-09T10:59:54.760Z,50.50
2019-03-09T11:09:59.650Z,50.92
2019-03-09T11:20:08.018Z,53.07
2019-03-09T11:30:26.499Z,66.38
2019-03-09T11:40:31.483Z,73.84
2019-03-09T11:50:36.376Z,79.49
2019-03-09T12:00:42.863Z,83.01
2019-03-09T12:10:47.724Z,86.00
2019-03-09T12:20:52.599Z,86.48
2019-03-09T12:30:57.516Z,85.58
2019-03-09T12:41:02.398Z,86.30
2019-03-09T12:51:07.586Z,85.80
2019-03-09T13:01:12.609Z,85.08
2019-03-09T13:11:17.592Z,83.14
2019-03-09T13:21:22.473Z,81.26
2019-03-09T13:31:27.373Z,80.51
2019-03-09T13:41:33.085Z,77.26
2019-03-09T13:51:37.989Z,78.00
2019-03-09T14:01:42.918Z,75.08
2019-03-09T14:11:48.822Z,71.63
2019-03-09T14:21:54.693Z,67.59
2019-03-09T14:31:59.560Z,68.49
2019-03-09T14:42:05.092Z,69.14
2019-03-09T14:52:09.983Z,69.38
2019-03-09T15:02:15.015Z,68.32
2019-03-09T15:12:19.998Z,68.97
2019-03-09T15:22:25.059Z,66.15
2019-03-09T15:32:30.037Z,66.10
2019-03-09T15:42:34.947Z,64.24
2019-03-09T15:52:41.101Z,65.72
2019-03-09T16:02:46.042Z,65.94
2019-03-09T16:12:51.087Z,65.92
2019-03-09T16:22:56.067Z,66.49
2019-03-09T16:33:01.045Z,66.37
2019-03-09T16:43:06.129Z,67.27
2019-03-09T16:53:11.043Z,66.87
2019-03-09T17:03:16.073Z,65.79
2019-03-09T17:13:21.064Z,66.86
2019-03-09T17:23:25.987Z,66.87
2019-03-09T17:33:32.053Z,67.35
2019-03-09T17:43:37.017Z,73.40
2019-03-09T17:53:42.047Z,84.69
2019-03-09T18:03:47.202Z,87.34
2019-03-09T18:24:17.605Z,86.47
2019-03-09T18:34:22.700Z,89.72
2019-03-09T18:44:27.678Z,90.89
2019-03-09T18:54:32.854Z,91.79
2019-03-09T19:04:38.422Z,91.58
2019-03-09T19:14:44.467Z,92.22
2019-03-09T19:24:49.450Z,91.95
2019-03-09T19:34:54.372Z,91.37
2019-03-09T19:44:59.272Z,90.80
2019-03-09T19:55:06.373Z,90.20
2019-03-09T20:05:12.815Z,90.30
2019-03-09T20:15:18.803Z,90.46
2019-03-09T20:25:23.968Z,89.98
2019-03-09T20:35:29.088Z,88.87
2019-03-09T20:45:45.492Z,87.09
2019-03-09T20:55:52.123Z,85.18
2019-03-09T21:05:57.011Z,84.09
2019-03-09T21:16:02.423Z,82.63
2019-03-09T21:26:07.652Z,81.23
2019-03-09T21:36:12.538Z,82.39
2019-03-09T21:46:17.437Z,81.51
2019-03-09T21:56:22.459Z,81.43
2019-03-09T22:06:27.538Z,82.23
2019-03-09T22:16:32.421Z,81.94
2019-03-09T22:26:37.408Z,83.79
2019-03-09T22:36:42.288Z,88.87
2019-03-09T22:46:47.259Z,90.72
2019-03-09T22:56:52.149Z,92.21
2019-03-09T23:06:57.039Z,91.38
2019-03-09T23:17:01.959Z,90.89
2019-03-09T23:27:06.827Z,89.86
2019-03-09T23:37:11.702Z,91.19
2019-03-09T23:47:16.676Z,91.99
2019-03-09T23:57:21.516Z,91.80
